createdAt,value
2018-04-11T00:00:22.735Z,60.50
2018-04-11T00:02:51.742Z,61.30
2018-04-11T00:05:20.432Z,61.60
2018-04-11T00:07:49.203Z,61.70
2018-04-11T00:10:18.140Z,61.50
2018-04-11T00:12:46.980Z,62.20
2018-04-11T00:15:16.077Z,62.40
2018-04-11T00:17:45.494Z,62.40
2018-04-11T00:20:14.186Z,62.10
2018-04-11T00:22:42.956Z,62.20
2018-04-11T00:25:11.897Z,62.30
2018-04-11T00:27:40.637Z,62.50
2018-04-11T00:30:10.245Z,62.60
2018-04-11T00:32:39.293Z,63.20
2018-04-11T00:35:07.957Z,63.00
2018-04-11T00:37:36.701Z,63.90
2018-04-11T00:40:05.640Z,63.90
2018-04-11T00:42:34.486Z,63.80
2018-04-11T00:45:03.172Z,63.80
2018-04-11T00:47:32.267Z,63.80
2018-04-11T00:50:01.309Z,63.80
2018-04-11T00:52:29.978Z,63.80
2018-04-11T00:54:59.115Z,64.00
2018-04-11T00:57:28.055Z,63.80
2018-04-11T00:59:56.821Z,64.20
2018-04-11T01:02:25.513Z,63.80
2018-04-11T01:04:54.605Z,63.70
2018-04-11T01:07:23.269Z,64.20
2018-04-11T01:09:51.985Z,64.20
2018-04-11T01:12:20.753Z,64.70
2018-04-11T01:14:49.692Z,65.10
2018-04-11T01:17:18.542Z,65.40
2018-04-11T01:19:47.225Z,65.50
2018-04-11T01:22:16.352Z,65.40
2018-04-11T01:24:45.006Z,65.50
2018-04-11T01:27:14.027Z,65.50
2018-04-11T01:29:42.541Z,65.40
2018-04-11T01:32:11.473Z,65.50
2018-04-11T01:34:40.566Z,65.80
2018-04-11T01:37:09.201Z,65.80
2018-04-11T01:39:38.349Z,65.80
2018-04-11T01:42:07.351Z,66.30
2018-04-11T01:44:36.016Z,66.30
2018-04-11T01:47:04.714Z,66.10
2018-04-11T01:49:33.905Z,66.30
2018-04-11T01:52:03.015Z,66.50
2018-04-11T01:54:32.009Z,66.70
2018-04-11T01:57:00.778Z,66.50
2018-04-11T01:59:29.883Z,66.50
2018-04-11T02:01:58.912Z,66.40
2018-04-11T02:04:28.076Z,66.60
2018-04-11T02:06:57.020Z,66.80
2018-04-11T02:09:25.781Z,66.80
2018-04-11T02:11:54.541Z,66.50
2018-04-11T02:14:23.225Z,66.80
2018-04-11T02:16:52.236Z,66.90
2018-04-11T02:19:20.900Z,67.10
2018-04-11T02:21:49.698Z,67.10
2018-04-11T02:24:18.206Z,67.10
2018-04-11T02:26:47.064Z,67.00
2018-04-11T02:29:15.904Z,67.00
2018-04-11T02:31:44.762Z,67.00
2018-04-11T02:34:13.927Z,67.00
2018-04-11T02:36:42.549Z,67.00
2018-04-11T02:39:12.085Z,67.00
2018-04-11T02:41:41.227Z,67.00
2018-04-11T02:44:10.243Z,67.00
2018-04-11T02:46:39.008Z,67.60
2018-04-11T02:49:08.027Z,67.80
2018-04-11T02:51:37.599Z,67.80
2018-04-11T02:54:06.235Z,67.90
2018-04-11T02:56:35.391Z,67.50
2018-04-11T02:59:03.941Z,67.70
2018-04-11T03:01:32.661Z,67.60
2018-04-11T03:04:02.270Z,67.50
2018-04-11T03:06:31.268Z,67.00
2018-04-11T03:08:59.934Z,67.40
2018-04-11T03:11:28.624Z,68.00
2018-04-11T03:13:57.344Z,68.00
2018-04-11T03:16:26.104Z,67.60
2018-04-11T03:18:54.582Z,67.70
2018-04-11T03:21:23.477Z,68.00
2018-04-11T03:23:52.156Z,68.20
2018-04-11T03:26:21.257Z,68.40
2018-04-11T03:28:50.190Z,68.40
2018-04-11T03:31:19.357Z,68.50
2018-04-11T03:33:48.524Z,68.40
2018-04-11T03:36:17.636Z,68.40
2018-04-11T03:38:46.328Z,68.40
2018-04-11T03:41:15.006Z,68.70
2018-04-11T03:43:44.023Z,68.60
2018-04-11T03:46:12.684Z,68.70
2018-04-11T03:48:41.882Z,68.70
2018-04-11T03:51:10.978Z,68.70
2018-04-11T03:53:40.076Z,68.80
2018-04-11T03:56:09.100Z,68.80
2018-04-11T03:58:38.114Z,68.80
2018-04-11T04:01:06.832Z,68.80
2018-04-11T04:03:35.522Z,69.00
2018-04-11T04:06:04.239Z,68.90
2018-04-11T04:08:33.417Z,68.80
2018-04-11T04:11:02.021Z,68.50
2018-04-11T04:13:42.345Z,68.40
2018-04-11T04:16:23.230Z,68.30
2018-04-11T04:21:54.194Z,68.00
2018-04-11T04:24:23.255Z,68.30
2018-04-11T04:26:52.222Z,68.30
2018-04-11T04:29:21.386Z,68.20
2018-04-11T04:31:50.152Z,68.30
2018-04-11T04:34:19.118Z,68.20
2018-04-11T04:36:47.834Z,68.30
2018-04-11T04:39:16.952Z,68.10
2018-04-11T04:41:45.623Z,68.30
2018-04-11T04:44:14.315Z,68.00
2018-04-11T04:46:42.977Z,67.60
2018-04-11T04:49:12.189Z,67.20
2018-04-11T04:51:41.284Z,67.20
2018-04-11T04:54:10.303Z,67.30
2018-04-11T04:56:39.882Z,67.40
2018-04-11T04:59:08.975Z,67.40
2018-04-11T05:01:38.052Z,67.00
2018-04-11T05:04:07.142Z,67.00
2018-04-11T05:06:36.262Z,67.20
2018-04-11T05:09:04.861Z,66.80
2018-04-11T05:11:33.971Z,66.60
2018-04-11T05:14:02.931Z,66.40
2018-04-11T05:16:31.823Z,66.40
2018-04-11T05:19:00.765Z,66.50
2018-04-11T05:21:29.485Z,67.00
2018-04-11T05:23:58.276Z,66.40
2018-04-11T05:26:27.218Z,66.80
2018-04-11T05:28:55.960Z,66.90
2018-04-11T05:31:25.984Z,66.90
2018-04-11T05:33:55.084Z,66.90
2018-04-11T05:36:24.035Z,66.90
2018-04-11T05:38:52.749Z,67.20
2018-04-11T05:41:21.491Z,65.10
2018-04-11T05:43:50.161Z,63.60
2018-04-11T05:46:18.826Z,62.50
2018-04-11T05:48:47.517Z,60.60
2018-04-11T05:51:16.289Z,59.20
2018-04-11T05:53:45.391Z,58.20
2018-04-11T05:56:14.317Z,57.80
2018-04-11T05:58:43.911Z,58.50
2018-04-11T06:01:12.600Z,58.00
2018-04-11T06:03:41.768Z,57.90
2018-04-11T06:06:10.781Z,57.90
2018-04-11T06:08:39.524Z,58.30
2018-04-11T06:11:08.192Z,59.20
2018-04-11T06:13:37.333Z,60.30
2018-04-11T06:16:06.200Z,61.00
2018-04-11T06:18:35.644Z,61.20
2018-04-11T06:21:04.432Z,61.70
2018-04-11T06:23:33.299Z,61.40
2018-04-11T06:26:01.967Z,61.90
2018-04-11T06:28:31.488Z,61.90
2018-04-11T06:31:00.173Z,62.20
2018-04-11T06:33:29.271Z,61.90
2018-04-11T06:35:57.740Z,62.10
2018-04-11T06:38:26.646Z,62.70
2018-04-11T06:40:55.740Z,62.60
2018-04-11T06:43:24.384Z,62.60
2018-04-11T06:45:53.348Z,62.80
2018-04-11T06:48:22.203Z,63.00
2018-04-11T06:50:51.323Z,63.40
2018-04-11T06:53:20.273Z,62.80
2018-04-11T06:55:49.390Z,62.80
2018-04-11T06:58:18.063Z,62.80
2018-04-11T07:00:46.750Z,63.10
2018-04-11T07:03:15.349Z,63.30
2018-04-11T07:05:44.033Z,63.10
2018-04-11T07:08:12.917Z,63.00
2018-04-11T07:10:41.864Z,62.70
2018-04-11T07:13:10.580Z,62.40
2018-04-11T07:15:39.388Z,62.00
2018-04-11T07:18:08.017Z,61.70
2018-04-11T07:20:37.166Z,61.00
2018-04-11T07:23:06.174Z,60.80
2018-04-11T07:25:35.358Z,61.10
2018-04-11T07:28:03.982Z,61.00
2018-04-11T07:30:33.047Z,60.80
2018-04-11T07:33:01.718Z,60.90
2018-04-11T07:35:30.916Z,61.30
2018-04-11T07:38:00.015Z,60.90
2018-04-11T07:40:29.063Z,61.10
2018-04-11T07:42:58.614Z,61.00
2018-04-11T07:45:27.710Z,60.80
2018-04-11T07:47:56.805Z,60.90
2018-04-11T07:50:25.806Z,60.80
2018-04-11T07:52:54.572Z,60.70
2018-04-11T07:55:23.679Z,60.30
2018-04-11T07:57:52.203Z,60.10
2018-04-11T08:00:20.971Z,60.30
2018-04-11T08:02:50.149Z,60.00
2018-04-11T08:05:19.080Z,59.90
2018-04-11T08:07:47.927Z,59.70
2018-04-11T08:10:17.026Z,59.10
2018-04-11T08:12:46.119Z,59.20
2018-04-11T08:15:15.223Z,58.90
2018-04-11T08:17:44.309Z,58.90
2018-04-11T08:20:13.257Z,58.50
2018-04-11T08:22:42.423Z,58.00
2018-04-11T08:25:10.914Z,58.40
2018-04-11T08:27:39.806Z,57.30
2018-04-11T08:30:09.249Z,57.40
2018-04-11T08:32:37.963Z,56.70
2018-04-11T08:35:06.636Z,57.60
2018-04-11T08:37:35.348Z,56.70
2018-04-11T08:40:04.039Z,56.00
2018-04-11T08:42:32.630Z,55.70
2018-04-11T08:45:01.377Z,53.70
2018-04-11T08:47:30.090Z,53.50
2018-04-11T08:49:59.271Z,53.20
2018-04-11T08:52:27.957Z,52.20
2018-04-11T08:54:57.054Z,52.40
2018-04-11T08:57:25.659Z,52.90
2018-04-11T08:59:54.425Z,51.80
2018-04-11T09:02:23.045Z,51.50
2018-04-11T09:04:52.184Z,51.80
2018-04-11T09:07:20.826Z,50.30
2018-04-11T09:09:49.469Z,50.60
2018-04-11T09:12:18.609Z,50.50
2018-04-11T09:14:47.767Z,50.00
2018-04-11T09:17:16.869Z,49.50
2018-04-11T09:19:45.694Z,49.80
2018-04-11T09:22:14.639Z,49.90
2018-04-11T09:24:43.739Z,50.30
2018-04-11T09:27:12.685Z,49.80
2018-04-11T09:29:41.776Z,48.90
2018-04-11T09:32:10.493Z,49.20
2018-04-11T09:34:39.297Z,48.70
2018-04-11T09:37:08.394Z,49.20
2018-04-11T09:39:37.421Z,48.70
2018-04-11T09:42:06.087Z,48.80
2018-04-11T09:44:34.801Z,48.30
2018-04-11T09:47:03.953Z,47.50
2018-04-11T09:49:33.055Z,47.10
2018-04-11T09:52:01.726Z,47.30
2018-04-11T09:54:30.744Z,47.00
2018-04-11T09:56:59.408Z,46.70
2018-04-11T09:59:28.101Z,46.80
2018-04-11T10:01:57.693Z,47.00
2018-04-11T10:04:26.397Z,46.40
2018-04-11T10:06:55.400Z,46.90
2018-04-11T10:09:24.067Z,47.60
2018-04-11T10:11:52.761Z,46.40
2018-04-11T10:14:21.548Z,46.80
2018-04-11T10:16:50.237Z,46.40
2018-04-11T10:19:18.925Z,45.10
2018-04-11T10:21:47.978Z,44.80
2018-04-11T10:24:17.110Z,44.20
2018-04-11T10:26:45.793Z,44.70
2018-04-11T10:29:14.803Z,44.50
2018-04-11T10:31:43.478Z,43.90
2018-04-11T10:34:12.161Z,44.00
2018-04-11T10:36:40.948Z,43.70
2018-04-11T10:39:10.294Z,43.70
2018-04-11T10:41:39.040Z,42.90
2018-04-11T10:44:07.703Z,42.60
2018-04-11T10:46:36.509Z,42.10
2018-04-11T10:49:05.111Z,42.30
2018-04-11T10:51:34.154Z,41.70
2018-04-11T10:54:02.870Z,41.50
2018-04-11T10:56:32.479Z,40.40
2018-04-11T10:59:01.453Z,40.40
2018-04-11T11:01:30.147Z,40.00
2018-04-11T11:03:59.403Z,40.00
2018-04-11T11:06:28.307Z,39.90
2018-04-11T11:08:56.829Z,39.20
2018-04-11T11:11:25.688Z,38.50
2018-04-11T11:13:55.335Z,38.50
2018-04-11T11:16:23.916Z,39.80
2018-04-11T11:18:53.180Z,38.50
2018-04-11T11:21:21.656Z,38.50
2018-04-11T11:23:50.176Z,37.50
2018-04-11T11:26:19.490Z,37.60
2018-04-11T11:28:48.023Z,36.90
2018-04-11T11:31:16.592Z,36.70
2018-04-11T11:33:45.063Z,36.00
2018-04-11T11:36:13.911Z,36.10
2018-04-11T11:38:42.971Z,35.30
2018-04-11T11:41:11.484Z,35.00
2018-04-11T11:43:40.282Z,34.60
2018-04-11T11:46:08.812Z,33.30
2018-04-11T11:48:37.751Z,33.60
2018-04-11T11:51:06.438Z,33.00
2018-04-11T11:53:34.993Z,33.50
2018-04-11T11:56:04.628Z,32.70
2018-04-11T11:58:33.134Z,32.50
2018-04-11T12:01:01.618Z,31.90
2018-04-11T12:03:30.116Z,32.60
2018-04-11T12:05:58.620Z,32.80
2018-04-11T12:08:27.145Z,32.00
2018-04-11T12:10:55.903Z,32.00
2018-04-11T12:13:24.381Z,32.30
2018-04-11T12:15:53.297Z,32.20
2018-04-11T12:18:21.851Z,33.00
2018-04-11T12:20:50.399Z,33.10
2018-04-11T12:23:18.885Z,33.10
2018-04-11T12:25:47.568Z,32.90
2018-04-11T12:28:16.721Z,33.10
2018-04-11T12:30:45.263Z,33.80
2018-04-11T12:33:15.188Z,32.80
2018-04-11T12:35:43.681Z,32.80
2018-04-11T12:38:12.156Z,32.60
2018-04-11T12:40:40.685Z,33.40
2018-04-11T12:43:09.178Z,33.70
2018-04-11T12:45:37.670Z,33.60
2018-04-11T12:48:06.620Z,33.30
2018-04-11T12:50:35.689Z,33.40
2018-04-11T12:53:04.328Z,34.10
2018-04-11T12:55:32.854Z,33.70
2018-04-11T12:58:01.473Z,33.40
2018-04-11T13:00:30.450Z,33.00
2018-04-11T13:02:59.398Z,33.20
2018-04-11T13:05:28.112Z,33.50
2018-04-11T13:07:57.381Z,33.30
2018-04-11T13:10:25.863Z,33.10
2018-04-11T13:12:54.368Z,32.70
2018-04-11T13:15:23.018Z,32.80
2018-04-11T13:17:51.524Z,32.30
2018-04-11T13:20:20.855Z,32.60
2018-04-11T13:22:50.105Z,32.40
2018-04-11T13:25:18.647Z,32.40
2018-04-11T13:27:47.629Z,31.90
2018-04-11T13:30:16.120Z,32.40
2018-04-11T13:32:44.659Z,32.40
2018-04-11T13:35:13.168Z,32.30
2018-04-11T13:37:42.508Z,32.20
2018-04-11T13:40:11.003Z,32.10
2018-04-11T13:42:39.688Z,32.00
2018-04-11T13:45:08.633Z,32.20
2018-04-11T13:47:37.216Z,31.60
2018-04-11T13:50:06.489Z,31.80
2018-04-11T13:52:35.513Z,31.80
2018-04-11T13:55:04.329Z,30.70
2018-04-11T13:57:33.524Z,30.70
2018-04-11T14:00:02.589Z,31.70
2018-04-11T14:02:31.564Z,30.80
2018-04-11T14:05:00.668Z,31.00
2018-04-11T14:07:29.362Z,30.70
2018-04-11T14:09:58.079Z,30.80
2018-04-11T14:12:26.840Z,30.40
2018-04-11T14:14:56.311Z,30.00
2018-04-11T14:17:25.440Z,29.90
2018-04-11T14:19:54.559Z,29.80
2018-04-11T14:22:23.157Z,29.40
2018-04-11T14:24:51.755Z,29.90
2018-04-11T14:27:20.496Z,30.00
2018-04-11T14:29:49.210Z,30.20
2018-04-11T14:32:17.880Z,30.00
2018-04-11T14:34:47.064Z,30.00
2018-04-11T14:37:15.690Z,30.30
2018-04-11T14:39:44.839Z,30.30
2018-04-11T14:42:13.770Z,30.80
2018-04-11T14:44:42.827Z,30.10
2018-04-11T14:47:11.393Z,29.90
2018-04-11T14:49:40.663Z,30.50
2018-04-11T14:52:09.186Z,30.50
2018-04-11T14:54:38.446Z,30.40
2018-04-11T14:57:06.943Z,30.30
2018-04-11T14:59:35.967Z,30.10
2018-04-11T15:02:05.063Z,29.80
2018-04-11T15:04:34.473Z,29.60
2018-04-11T15:07:03.142Z,29.40
2018-04-11T15:09:31.832Z,29.50
2018-04-11T15:12:00.622Z,29.70
2018-04-11T15:14:29.717Z,29.70
2018-04-11T15:16:58.819Z,30.00
2018-04-11T15:19:27.348Z,29.70
2018-04-11T15:21:56.067Z,28.70
2018-04-11T15:24:24.757Z,29.00
2018-04-11T15:26:53.452Z,28.40
2018-04-11T15:29:25.818Z,28.20
2018-04-11T15:31:55.358Z,28.80
2018-04-11T15:34:23.943Z,28.80
2018-04-11T15:36:52.453Z,29.30
2018-04-11T15:39:20.937Z,28.50
2018-04-11T15:41:49.492Z,29.00
2018-04-11T15:44:18.367Z,28.90
2018-04-11T15:46:47.035Z,29.50
2018-04-11T15:49:16.326Z,29.80
2018-04-11T15:51:45.722Z,30.00
2018-04-11T15:54:14.735Z,29.80
2018-04-11T15:56:43.279Z,29.30
2018-04-11T15:59:11.774Z,29.50
2018-04-11T16:01:40.275Z,29.50
2018-04-11T16:04:08.767Z,29.60
2018-04-11T16:06:37.291Z,29.30
2018-04-11T16:09:05.825Z,29.40
2018-04-11T16:11:35.089Z,29.60
2018-04-11T16:14:04.403Z,29.30
2018-04-11T16:16:32.947Z,29.30
2018-04-11T16:19:01.574Z,29.30
2018-04-11T16:21:30.849Z,29.00
2018-04-11T16:23:59.341Z,29.00
2018-04-11T16:26:27.864Z,29.40
2018-04-11T16:28:56.746Z,29.50
2018-04-11T16:31:25.388Z,29.80
2018-04-11T16:33:54.001Z,30.00
2018-04-11T16:36:22.513Z,30.10
2018-04-11T16:38:51.441Z,30.50
2018-04-11T16:41:20.017Z,30.40
2018-04-11T16:43:48.505Z,31.00
2018-04-11T16:46:17.015Z,31.40
2018-04-11T16:48:45.529Z,31.70
2018-04-11T16:51:14.062Z,32.00
2018-04-11T16:53:42.620Z,32.40
2018-04-11T16:56:11.100Z,32.90
2018-04-11T16:58:40.255Z,33.20
2018-04-11T17:01:09.264Z,33.80
2018-04-11T17:03:37.853Z,34.10
2018-04-11T17:06:06.355Z,34.30
2018-04-11T17:08:34.988Z,34.70
2018-04-11T17:11:03.507Z,34.90
2018-04-11T17:13:32.146Z,35.40
2018-04-11T17:16:01.061Z,35.30
2018-04-11T17:18:30.984Z,35.90
2018-04-11T17:21:11.401Z,36.20
2018-04-11T17:23:52.105Z,36.30
2018-04-11T17:26:32.431Z,36.80
2018-04-11T17:29:12.630Z,36.90
2018-04-11T17:31:41.131Z,37.20
2018-04-11T17:34:10.106Z,37.50
2018-04-11T17:36:38.662Z,37.70
2018-04-11T17:39:07.516Z,37.90
2018-04-11T17:41:36.044Z,38.30
2018-04-11T17:44:04.584Z,38.30
2018-04-11T17:46:33.612Z,38.40
2018-04-11T17:49:02.558Z,38.20
2018-04-11T17:51:31.377Z,38.30
2018-04-11T17:54:00.344Z,38.30
2018-04-11T17:56:29.585Z,38.70
2018-04-11T17:58:58.680Z,38.60
2018-04-11T18:01:27.831Z,38.70
2018-04-11T18:03:56.525Z,38.80
2018-04-11T18:06:25.014Z,38.70
2018-04-11T18:08:53.531Z,39.10
2018-04-11T18:11:22.165Z,38.80
2018-04-11T18:13:50.659Z,39.20
2018-04-11T18:16:19.198Z,39.20
2018-04-11T18:18:47.753Z,39.20
2018-04-11T18:21:16.751Z,39.10
2018-04-11T18:23:45.418Z,39.10
2018-04-11T18:26:15.011Z,39.00
2018-04-11T18:28:43.654Z,39.00
2018-04-11T18:31:12.833Z,39.60
2018-04-11T18:33:41.341Z,39.20
2018-04-11T18:36:09.947Z,40.10
2018-04-11T18:38:38.589Z,40.50
2018-04-11T18:41:07.883Z,41.00
2018-04-11T18:43:36.398Z,41.00
2018-04-11T18:46:04.937Z,41.30
2018-04-11T18:48:33.471Z,41.10
2018-04-11T18:51:02.313Z,41.50
2018-04-11T18:53:30.865Z,41.70
2018-04-11T18:55:59.392Z,41.90
2018-04-11T18:58:28.004Z,41.90
2018-04-11T19:00:56.680Z,41.90
2018-04-11T19:03:25.336Z,42.10
2018-04-11T19:05:53.855Z,42.30
2018-04-11T19:08:22.400Z,42.50
2018-04-11T19:10:50.971Z,42.80
2018-04-11T19:13:19.540Z,44.20
2018-04-11T19:15:48.249Z,44.90
2018-04-11T19:18:17.439Z,45.20
2018-04-11T19:20:46.541Z,44.70
2018-04-11T19:23:15.057Z,44.60
2018-04-11T19:25:43.909Z,44.40
2018-04-11T19:28:12.424Z,44.50
2018-04-11T19:30:40.996Z,44.50
2018-04-11T19:33:09.560Z,44.50
2018-04-11T19:35:38.109Z,44.40
2018-04-11T19:38:06.928Z,44.50
2018-04-11T19:40:35.941Z,44.50
2018-04-11T19:43:05.124Z,44.90
2018-04-11T19:45:33.772Z,44.80
2018-04-11T19:48:02.330Z,44.80
2018-04-11T19:50:30.880Z,44.80
2018-04-11T19:53:00.692Z,45.30
2018-04-11T19:55:29.281Z,45.30
2018-04-11T19:57:57.871Z,45.50
2018-04-11T20:00:26.370Z,45.50
2018-04-11T20:02:54.925Z,45.50
2018-04-11T20:05:24.311Z,45.60
2018-04-11T20:07:52.952Z,46.10
2018-04-11T20:10:21.437Z,46.00
2018-04-11T20:12:50.482Z,46.20
2018-04-11T20:15:19.377Z,46.30
2018-04-11T20:17:47.931Z,46.70
2018-04-11T20:20:16.480Z,47.20
2018-04-11T20:22:45.035Z,47.10
2018-04-11T20:25:13.629Z,47.10
2018-04-11T20:27:42.145Z,47.40
2018-04-11T20:30:10.665Z,47.50
2018-04-11T20:32:39.184Z,47.90
2018-04-11T20:35:07.810Z,48.50
2018-04-11T20:37:37.090Z,53.40
2018-04-11T20:40:05.609Z,53.40
2018-04-11T20:42:34.152Z,55.00
2018-04-11T20:45:02.676Z,53.70
2018-04-11T20:47:31.348Z,53.30
2018-04-11T20:49:59.938Z,53.20
2018-04-11T20:52:29.451Z,52.40
2018-04-11T20:54:57.979Z,52.40
2018-04-11T20:57:26.861Z,52.00
2018-04-11T20:59:56.019Z,51.80
2018-04-11T21:02:24.541Z,51.90
2018-04-11T21:04:53.038Z,51.70
2018-04-11T21:07:21.551Z,51.50
2018-04-11T21:09:50.200Z,52.00
2018-04-11T21:12:18.689Z,52.00
2018-04-11T21:14:47.214Z,52.20
2018-04-11T21:17:16.463Z,52.30
2018-04-11T21:19:45.292Z,52.30
2018-04-11T21:22:14.502Z,52.50
2018-04-11T21:24:43.060Z,52.50
2018-04-11T21:27:11.547Z,52.80
2018-04-11T21:29:40.028Z,52.80
2018-04-11T21:32:08.671Z,54.00
2018-04-11T21:34:37.161Z,55.90
2018-04-11T21:37:05.796Z,56.70
2018-04-11T21:39:35.021Z,56.90
2018-04-11T21:42:03.604Z,56.80
2018-04-11T21:44:32.123Z,56.20
2018-04-11T21:47:00.597Z,56.40
2018-04-11T21:49:29.147Z,56.40
2018-04-11T21:51:58.004Z,55.90
2018-04-11T21:54:27.018Z,55.70
2018-04-11T21:56:55.784Z,55.60
2018-04-11T21:59:24.729Z,55.80
2018-04-11T22:01:53.563Z,55.90
2018-04-11T22:04:22.509Z,56.40
2018-04-11T22:06:51.254Z,56.60
2018-04-11T22:09:20.017Z,56.50
2018-04-11T22:11:49.126Z,56.60
2018-04-11T22:14:17.702Z,56.60
2018-04-11T22:16:47.015Z,57.20
2018-04-11T22:19:15.513Z,57.20
2018-04-11T22:21:44.009Z,57.80
2018-04-11T22:24:12.561Z,58.20
2018-04-11T22:26:41.089Z,58.40
2018-04-11T22:29:09.639Z,58.50
2018-04-11T22:31:38.249Z,58.50
2018-04-11T22:34:07.212Z,58.50
2018-04-11T22:36:36.354Z,58.80
2018-04-11T22:39:05.487Z,58.80
2018-04-11T22:41:34.173Z,59.10
2018-04-11T22:44:02.802Z,59.80
2018-04-11T22:46:31.956Z,60.20
2018-04-11T22:49:00.640Z,60.70
2018-04-11T22:51:29.740Z,61.10
2018-04-11T22:53:58.669Z,61.60
2018-04-11T22:56:27.516Z,62.00
2018-04-11T22:58:56.529Z,61.60
2018-04-11T23:01:25.705Z,62.10
2018-04-11T23:03:54.711Z,62.10
2018-04-11T23:06:23.900Z,62.30
2018-04-11T23:08:52.896Z,62.40
2018-04-11T23:11:22.089Z,62.40
2018-04-11T23:13:50.776Z,62.50
2018-04-11T23:16:19.664Z,62.30
2018-04-11T23:18:48.553Z,62.30
2018-04-11T23:21:17.382Z,62.60
2018-04-11T23:23:46.246Z,62.60
2018-04-11T23:26:14.911Z,62.60
2018-04-11T23:28:43.702Z,62.50
2018-04-11T23:31:12.800Z,63.00
2018-04-11T23:33:41.902Z,63.40
2018-04-11T23:36:10.583Z,64.50
2018-04-11T23:38:39.595Z,65.00
2018-04-11T23:41:08.760Z,65.20
2018-04-11T23:43:37.870Z,65.90
2018-04-11T23:46:06.871Z,66.10
2018-04-11T23:48:35.988Z,66.50
2018-04-11T23:51:04.679Z,66.70
2018-04-11T23:53:33.743Z,66.60
2018-04-11T23:56:02.460Z,66.80
2018-04-11T23:58:31.618Z,66.50
